sensor_id;sensor_type;location;lat;lon;timestamp;pressure;altitude;pressure_sealevel;temperature;humidity
5062;BME280;2351;50.812;12.872;2023-05-29T00:00:30;98175.06;;;9.94;71.49
5062;BME280;2351;50.812;12.872;2023-05-29T00:03:02;98180.59;;;9.91;71.23
5062;BME280;2351;50.812;12.872;2023-05-29T00:05:35;98181.09;;;9.85;71.99
5062;BME280;2351;50.812;12.872;2023-05-29T00:08:07;98179.78;;;9.79;71.96
5062;BME280;2351;50.812;12.872;2023-05-29T00:10:39;98181.84;;;9.76;72.09
5062;BME280;2351;50.812;12.872;2023-05-29T00:13:10;98175.81;;;9.74;72.36
5062;BME280;2351;50.812;12.872;2023-05-29T00:15:43;98175.94;;;9.72;72.81
5062;BME280;2351;50.812;12.872;2023-05-29T00:18:15;98174.25;;;9.71;73.06
5062;BME280;2351;50.812;12.872;2023-05-29T00:20:47;98175.34;;;9.69;73.01
5062;BME280;2351;50.812;12.872;2023-05-29T00:23:19;98172.94;;;9.65;72.74
5062;BME280;2351;50.812;12.872;2023-05-29T00:25:51;98175.94;;;9.61;73.09
5062;BME280;2351;50.812;12.872;2023-05-29T00:28:22;98179.69;;;9.58;73.35
5062;BME280;2351;50.812;12.872;2023-05-29T00:30:55;98172.00;;;9.55;73.77
5062;BME280;2351;50.812;12.872;2023-05-29T00:33:27;98172.47;;;9.49;73.53
5062;BME280;2351;50.812;12.872;2023-05-29T00:35:59;98170.91;;;9.46;74.02
5062;BME280;2351;50.812;12.872;2023-05-29T00:38:30;98171.97;;;9.44;74.44
5062;BME280;2351;50.812;12.872;2023-05-29T00:41:02;98167.78;;;9.41;74.17
5062;BME280;2351;50.812;12.872;2023-05-29T00:43:34;98167.88;;;9.40;74.28
5062;BME280;2351;50.812;12.872;2023-05-29T00:46:07;98164.66;;;9.36;74.74
5062;BME280;2351;50.812;12.872;2023-05-29T00:48:39;98163.19;;;9.32;74.62
5062;BME280;2351;50.812;12.872;2023-05-29T00:51:12;98158.41;;;9.26;74.96
5062;BME280;2351;50.812;12.872;2023-05-29T00:53:45;98161.38;;;9.21;75.20
5062;BME280;2351;50.812;12.872;2023-05-29T00:56:18;98165.22;;;9.17;75.30
5062;BME280;2351;50.812;12.872;2023-05-29T00:58:51;98164.75;;;9.12;75.26
5062;BME280;2351;50.812;12.872;2023-05-29T01:01:25;98163.31;;;9.08;75.68
5062;BME280;2351;50.812;12.872;2023-05-29T01:03:57;98162.56;;;9.06;75.69
5062;BME280;2351;50.812;12.872;2023-05-29T01:06:31;98163.75;;;9.01;75.69
5062;BME280;2351;50.812;12.872;2023-05-29T01:09:03;98163.25;;;8.96;76.01
5062;BME280;2351;50.812;12.872;2023-05-29T01:11:41;98161.09;;;8.90;75.91
5062;BME280;2351;50.812;12.872;2023-05-29T01:14:22;98171.03;;;8.86;76.00
5062;BME280;2351;50.812;12.872;2023-05-29T01:20:07;98164.44;;;8.81;76.77
5062;BME280;2351;50.812;12.872;2023-05-29T01:22:58;98169.94;;;8.78;76.95
5062;BME280;2351;50.812;12.872;2023-05-29T01:25:55;98167.53;;;8.74;76.81
5062;BME280;2351;50.812;12.872;2023-05-29T01:28:34;98162.72;;;8.68;76.80
5062;BME280;2351;50.812;12.872;2023-05-29T01:31:09;98165.59;;;8.65;77.17
5062;BME280;2351;50.812;12.872;2023-05-29T01:33:41;98172.88;;;8.62;77.25
5062;BME280;2351;50.812;12.872;2023-05-29T01:36:13;98170.50;;;8.58;77.33
5062;BME280;2351;50.812;12.872;2023-05-29T01:38:44;98170.81;;;8.54;77.43
5062;BME280;2351;50.812;12.872;2023-05-29T01:41:17;98172.13;;;8.48;77.60
5062;BME280;2351;50.812;12.872;2023-05-29T01:43:51;98165.47;;;8.42;77.88
5062;BME280;2351;50.812;12.872;2023-05-29T01:46:23;98168.22;;;8.41;77.83
5062;BME280;2351;50.812;12.872;2023-05-29T01:48:56;98165.81;;;8.38;77.94
5062;BME280;2351;50.812;12.872;2023-05-29T01:51:28;98171.19;;;8.36;78.19
5062;BME280;2351;50.812;12.872;2023-05-29T01:54:02;98156.53;;;8.32;78.44
5062;BME280;2351;50.812;12.872;2023-05-29T01:56:35;98164.81;;;8.27;78.54
5062;BME280;2351;50.812;12.872;2023-05-29T01:59:10;98171.16;;;8.25;78.26
5062;BME280;2351;50.812;12.872;2023-05-29T02:01:43;98166.09;;;8.22;78.70
5062;BME280;2351;50.812;12.872;2023-05-29T02:04:15;98167.88;;;8.21;79.03
5062;BME280;2351;50.812;12.872;2023-05-29T02:06:47;98169.69;;;8.21;79.03
5062;BME280;2351;50.812;12.872;2023-05-29T02:09:20;98160.19;;;8.18;79.30
5062;BME280;2351;50.812;12.872;2023-05-29T02:11:52;98171.59;;;8.19;79.45
5062;BME280;2351;50.812;12.872;2023-05-29T02:14:26;98162.94;;;8.17;79.37
5062;BME280;2351;50.812;12.872;2023-05-29T02:16:57;98172.75;;;8.14;79.66
5062;BME280;2351;50.812;12.872;2023-05-29T02:19:29;98170.47;;;8.10;79.73
5062;BME280;2351;50.812;12.872;2023-05-29T02:22:01;98173.19;;;8.08;79.47
5062;BME280;2351;50.812;12.872;2023-05-29T02:24:33;98172.69;;;8.03;79.64
5062;BME280;2351;50.812;12.872;2023-05-29T02:27:05;98178.41;;;7.97;79.98
5062;BME280;2351;50.812;12.872;2023-05-29T02:29:38;98184.75;;;7.94;79.89
5062;BME280;2351;50.812;12.872;2023-05-29T02:32:10;98174.53;;;7.90;80.28
5062;BME280;2351;50.812;12.872;2023-05-29T02:34:41;98174.72;;;7.87;79.99
5062;BME280;2351;50.812;12.872;2023-05-29T02:37:13;98176.75;;;7.83;80.52
5062;BME280;2351;50.812;12.872;2023-05-29T02:39:45;98178.78;;;7.79;80.35
5062;BME280;2351;50.812;12.872;2023-05-29T02:42:17;98174.66;;;7.75;80.62
5062;BME280;2351;50.812;12.872;2023-05-29T02:44:50;98167.81;;;7.73;81.03
5062;BME280;2351;50.812;12.872;2023-05-29T02:47:22;98173.94;;;7.73;81.01
5062;BME280;2351;50.812;12.872;2023-05-29T02:49:53;98183.72;;;7.71;81.16
5062;BME280;2351;50.812;12.872;2023-05-29T02:52:25;98184.69;;;7.70;81.10
5062;BME280;2351;50.812;12.872;2023-05-29T02:54:57;98184.91;;;7.67;81.38
5062;BME280;2351;50.812;12.872;2023-05-29T02:57:30;98179.75;;;7.65;81.29
5062;BME280;2351;50.812;12.872;2023-05-29T03:00:03;98182.47;;;7.64;81.45
5062;BME280;2351;50.812;12.872;2023-05-29T03:02:38;98181.03;;;7.60;82.00
5062;BME280;2351;50.812;12.872;2023-05-29T03:05:09;98177.75;;;7.56;81.69
5062;BME280;2351;50.812;12.872;2023-05-29T03:07:41;98182.28;;;7.54;82.02
5062;BME280;2351;50.812;12.872;2023-05-29T03:10:13;98189.44;;;7.52;82.14
5062;BME280;2351;50.812;12.872;2023-05-29T03:12:47;98195.56;;;7.52;82.18
5062;BME280;2351;50.812;12.872;2023-05-29T03:15:21;98188.63;;;7.51;82.47
5062;BME280;2351;50.812;12.872;2023-05-29T03:17:53;98185.25;;;7.49;82.60
5062;BME280;2351;50.812;12.872;2023-05-29T03:20:24;98190.72;;;7.46;82.58
5062;BME280;2351;50.812;12.872;2023-05-29T03:22:56;98184.63;;;7.46;83.07
5062;BME280;2351;50.812;12.872;2023-05-29T03:25:28;98183.69;;;7.47;83.14
5062;BME280;2351;50.812;12.872;2023-05-29T03:28:00;98181.03;;;7.47;83.14
5062;BME280;2351;50.812;12.872;2023-05-29T03:30:33;98182.72;;;7.48;83.58
5062;BME280;2351;50.812;12.872;2023-05-29T03:33:05;98180.91;;;7.48;83.41
5062;BME280;2351;50.812;12.872;2023-05-29T03:35:36;98186.94;;;7.50;83.44
5062;BME280;2351;50.812;12.872;2023-05-29T03:38:09;98196.50;;;7.51;83.84
5062;BME280;2351;50.812;12.872;2023-05-29T03:40:41;98200.09;;;7.50;84.06
5062;BME280;2351;50.812;12.872;2023-05-29T03:43:12;98205.38;;;7.50;84.03
5062;BME280;2351;50.812;12.872;2023-05-29T03:45:46;98202.84;;;7.49;84.29
5062;BME280;2351;50.812;12.872;2023-05-29T03:48:17;98206.63;;;7.45;84.51
5062;BME280;2351;50.812;12.872;2023-05-29T03:50:49;98215.81;;;7.39;85.55
5062;BME280;2351;50.812;12.872;2023-05-29T03:53:21;98214.53;;;7.32;85.70
5062;BME280;2351;50.812;12.872;2023-05-29T03:55:53;98214.63;;;7.30;85.72
5062;BME280;2351;50.812;12.872;2023-05-29T03:58:24;98223.38;;;7.31;85.97
5062;BME280;2351;50.812;12.872;2023-05-29T04:00:58;98226.75;;;7.33;86.09
5062;BME280;2351;50.812;12.872;2023-05-29T04:03:29;98230.88;;;7.37;86.37
5062;BME280;2351;50.812;12.872;2023-05-29T04:06:01;98225.91;;;7.45;86.65
5062;BME280;2351;50.812;12.872;2023-05-29T04:08:33;98228.88;;;7.53;86.84
5062;BME280;2351;50.812;12.872;2023-05-29T04:11:05;98231.91;;;7.60;86.92
5062;BME280;2351;50.812;12.872;2023-05-29T04:13:37;98227.78;;;7.69;86.99
5062;BME280;2351;50.812;12.872;2023-05-29T04:16:11;98231.69;;;7.76;87.27
5062;BME280;2351;50.812;12.872;2023-05-29T04:18:42;98238.19;;;7.83;87.21
5062;BME280;2351;50.812;12.872;2023-05-29T04:21:14;98240.53;;;7.88;87.99
5062;BME280;2351;50.812;12.872;2023-05-29T04:23:46;98227.22;;;7.90;87.91
5062;BME280;2351;50.812;12.872;2023-05-29T04:26:20;98229.31;;;7.97;87.98
5062;BME280;2351;50.812;12.872;2023-05-29T04:28:55;98240.28;;;8.04;88.55
5062;BME280;2351;50.812;12.872;2023-05-29T04:31:29;98234.47;;;8.12;88.61
5062;BME280;2351;50.812;12.872;2023-05-29T04:34:01;98236.66;;;8.18;89.00
5062;BME280;2351;50.812;12.872;2023-05-29T04:36:34;98244.84;;;8.26;89.16
5062;BME280;2351;50.812;12.872;2023-05-29T04:39:09;98246.94;;;8.34;89.59
5062;BME280;2351;50.812;12.872;2023-05-29T04:41:41;98244.59;;;8.42;89.68
5062;BME280;2351;50.812;12.872;2023-05-29T04:44:12;98241.09;;;8.55;89.83
5062;BME280;2351;50.812;12.872;2023-05-29T04:46:46;98244.53;;;8.68;89.82
5062;BME280;2351;50.812;12.872;2023-05-29T04:49:18;98248.66;;;8.84;90.71
5062;BME280;2351;50.812;12.872;2023-05-29T04:51:50;98245.00;;;8.98;90.35
5062;BME280;2351;50.812;12.872;2023-05-29T04:54:23;98260.78;;;9.11;90.76
5062;BME280;2351;50.812;12.872;2023-05-29T04:56:55;98248.53;;;9.21;90.71
5062;BME280;2351;50.812;12.872;2023-05-29T04:59:27;98238.75;;;9.34;91.16
5062;BME280;2351;50.812;12.872;2023-05-29T05:02:00;98244.88;;;9.46;91.43
5062;BME280;2351;50.812;12.872;2023-05-29T05:04:32;98252.59;;;9.61;91.49
5062;BME280;2351;50.812;12.872;2023-05-29T05:07:05;98255.94;;;9.74;91.95
5062;BME280;2351;50.812;12.872;2023-05-29T05:09:36;98261.84;;;9.89;92.13
5062;BME280;2351;50.812;12.872;2023-05-29T05:12:08;98263.28;;;10.05;92.06
5062;BME280;2351;50.812;12.872;2023-05-29T05:14:40;98257.75;;;10.19;92.24
5062;BME280;2351;50.812;12.872;2023-05-29T05:17:13;98258.44;;;10.33;92.40
5062;BME280;2351;50.812;12.872;2023-05-29T05:19:45;98253.16;;;10.44;92.49
5062;BME280;2351;50.812;12.872;2023-05-29T05:22:19;98261.06;;;10.55;92.66
5062;BME280;2351;50.812;12.872;2023-05-29T05:24:51;98271.41;;;10.70;92.74
5062;BME280;2351;50.812;12.872;2023-05-29T05:27:24;98261.47;;;10.83;92.87
5062;BME280;2351;50.812;12.872;2023-05-29T05:29:56;98257.69;;;10.97;92.61
5062;BME280;2351;50.812;12.872;2023-05-29T05:32:29;98268.81;;;11.12;92.46
5062;BME280;2351;50.812;12.872;2023-05-29T05:35:01;98263.06;;;11.28;92.49
5062;BME280;2351;50.812;12.872;2023-05-29T05:37:33;98262.50;;;11.46;92.33
5062;BME280;2351;50.812;12.872;2023-05-29T05:40:07;98261.28;;;11.60;92.27
5062;BME280;2351;50.812;12.872;2023-05-29T05:42:39;98264.59;;;11.73;91.76
5062;BME280;2351;50.812;12.872;2023-05-29T05:45:11;98265.34;;;11.85;91.72
5062;BME280;2351;50.812;12.872;2023-05-29T05:47:44;98271.28;;;11.99;91.37
5062;BME280;2351;50.812;12.872;2023-05-29T05:50:16;98271.91;;;12.12;91.13
5062;BME280;2351;50.812;12.872;2023-05-29T05:52:48;98282.41;;;12.24;90.97
5062;BME280;2351;50.812;12.872;2023-05-29T05:55:20;98276.16;;;12.34;90.06
5062;BME280;2351;50.812;12.872;2023-05-29T05:57:52;98272.97;;;12.41;89.06
5062;BME280;2351;50.812;12.872;2023-05-29T06:00:24;98274.25;;;12.56;89.04
5062;BME280;2351;50.812;12.872;2023-05-29T06:02:57;98273.84;;;12.61;86.17
5062;BME280;2351;50.812;12.872;2023-05-29T06:05:29;98279.59;;;12.76;86.91
5062;BME280;2351;50.812;12.872;2023-05-29T06:08:01;98273.19;;;13.08;87.13
5062;BME280;2351;50.812;12.872;2023-05-29T06:10:33;98276.09;;;13.64;86.99
5062;BME280;2351;50.812;12.872;2023-05-29T06:13:05;98282.91;;;14.14;85.98
5062;BME280;2351;50.812;12.872;2023-05-29T06:15:37;98272.66;;;14.19;78.21
5062;BME280;2351;50.812;12.872;2023-05-29T06:18:10;98271.56;;;13.84;69.88
5062;BME280;2351;50.812;12.872;2023-05-29T06:20:42;98276.91;;;13.74;71.09
5062;BME280;2351;50.812;12.872;2023-05-29T06:23:13;98278.44;;;13.77;72.02
5062;BME280;2351;50.812;12.872;2023-05-29T06:25:45;98282.75;;;13.88;73.39
5062;BME280;2351;50.812;12.872;2023-05-29T06:28:17;98280.50;;;13.93;71.54
5062;BME280;2351;50.812;12.872;2023-05-29T06:30:49;98287.63;;;13.92;70.42
5062;BME280;2351;50.812;12.872;2023-05-29T06:33:22;98289.88;;;13.97;68.68
5062;BME280;2351;50.812;12.872;2023-05-29T06:35:54;98285.25;;;13.99;67.47
5062;BME280;2351;50.812;12.872;2023-05-29T06:38:26;98295.69;;;14.10;67.10
5062;BME280;2351;50.812;12.872;2023-05-29T06:40:58;98288.09;;;14.15;67.27
5062;BME280;2351;50.812;12.872;2023-05-29T06:43:29;98290.47;;;14.19;66.19
5062;BME280;2351;50.812;12.872;2023-05-29T06:46:02;98288.19;;;14.24;67.13
5062;BME280;2351;50.812;12.872;2023-05-29T06:48:36;98301.50;;;14.34;67.22
5062;BME280;2351;50.812;12.872;2023-05-29T06:51:08;98301.13;;;14.46;66.62
5062;BME280;2351;50.812;12.872;2023-05-29T06:53:41;98299.47;;;14.64;66.96
5062;BME280;2351;50.812;12.872;2023-05-29T06:56:13;98292.84;;;14.78;67.08
5062;BME280;2351;50.812;12.872;2023-05-29T06:58:45;98299.63;;;14.90;65.52
5062;BME280;2351;50.812;12.872;2023-05-29T07:01:17;98299.41;;;15.01;66.27
5062;BME280;2351;50.812;12.872;2023-05-29T07:03:53;98308.31;;;15.10;64.33
5062;BME280;2351;50.812;12.872;2023-05-29T07:06:25;98308.47;;;15.09;62.25
5062;BME280;2351;50.812;12.872;2023-05-29T07:08:57;98302.06;;;15.19;63.09
5062;BME280;2351;50.812;12.872;2023-05-29T07:11:29;98298.03;;;15.33;62.35
5062;BME280;2351;50.812;12.872;2023-05-29T07:14:00;98300.13;;;15.48;62.44
5062;BME280;2351;50.812;12.872;2023-05-29T07:16:32;98299.75;;;15.61;61.15
5062;BME280;2351;50.812;12.872;2023-05-29T07:19:05;98294.97;;;15.73;62.11
5062;BME280;2351;50.812;12.872;2023-05-29T07:21:37;98298.94;;;15.87;62.29
5062;BME280;2351;50.812;12.872;2023-05-29T07:24:09;98298.19;;;16.03;61.74
5062;BME280;2351;50.812;12.872;2023-05-29T07:26:42;98306.56;;;16.08;60.01
5062;BME280;2351;50.812;12.872;2023-05-29T07:29:13;98302.06;;;16.08;59.73
5062;BME280;2351;50.812;12.872;2023-05-29T07:31:47;98309.97;;;16.18;60.33
5062;BME280;2351;50.812;12.872;2023-05-29T07:34:20;98305.84;;;16.32;60.03
5062;BME280;2351;50.812;12.872;2023-05-29T07:37:00;98309.84;;;16.36;57.56
5062;BME280;2351;50.812;12.872;2023-05-29T07:39:34;98311.03;;;16.34;56.36
5062;BME280;2351;50.812;12.872;2023-05-29T07:42:06;98307.72;;;16.40;56.63
5062;BME280;2351;50.812;12.872;2023-05-29T07:44:38;98312.38;;;16.38;54.10
5062;BME280;2351;50.812;12.872;2023-05-29T07:47:12;98319.09;;;16.50;54.29
5062;BME280;2351;50.812;12.872;2023-05-29T07:49:45;98320.16;;;16.66;54.20
5062;BME280;2351;50.812;12.872;2023-05-29T07:52:16;98323.16;;;16.71;53.77
5062;BME280;2351;50.812;12.872;2023-05-29T07:54:48;98322.53;;;16.77;54.59
5062;BME280;2351;50.812;12.872;2023-05-29T07:57:20;98323.00;;;16.64;52.72
5062;BME280;2351;50.812;12.872;2023-05-29T07:59:52;98322.88;;;16.91;50.60
5062;BME280;2351;50.812;12.872;2023-05-29T08:02:24;98324.97;;;17.05;50.29
5062;BME280;2351;50.812;12.872;2023-05-29T08:04:58;98324.97;;;17.05;49.19
5062;BME280;2351;50.812;12.872;2023-05-29T08:07:29;98320.13;;;17.09;50.36
5062;BME280;2351;50.812;12.872;2023-05-29T08:10:02;98326.50;;;17.16;50.77
5062;BME280;2351;50.812;12.872;2023-05-29T08:12:35;98321.63;;;17.03;48.97
5062;BME280;2351;50.812;12.872;2023-05-29T08:15:07;98329.63;;;17.11;49.49
5062;BME280;2351;50.812;12.872;2023-05-29T08:17:39;98328.00;;;17.19;47.70
5062;BME280;2351;50.812;12.872;2023-05-29T08:20:12;98329.84;;;17.26;48.84
5062;BME280;2351;50.812;12.872;2023-05-29T08:22:47;98326.31;;;17.34;48.77
5062;BME280;2351;50.812;12.872;2023-05-29T08:25:20;98334.34;;;17.34;48.70
5062;BME280;2351;50.812;12.872;2023-05-29T08:27:51;98329.66;;;17.36;48.48
5062;BME280;2351;50.812;12.872;2023-05-29T08:30:23;98326.81;;;17.46;48.80
5062;BME280;2351;50.812;12.872;2023-05-29T08:32:56;98333.34;;;17.43;49.46
5062;BME280;2351;50.812;12.872;2023-05-29T08:35:41;98328.34;;;17.57;49.66
5062;BME280;2351;50.812;12.872;2023-05-29T08:38:13;98323.31;;;17.70;49.83
5062;BME280;2351;50.812;12.872;2023-05-29T08:40:46;98325.31;;;17.85;48.92
5062;BME280;2351;50.812;12.872;2023-05-29T08:43:21;98314.94;;;17.90;49.18
5062;BME280;2351;50.812;12.872;2023-05-29T08:45:54;98323.63;;;18.09;48.87
5062;BME280;2351;50.812;12.872;2023-05-29T08:48:27;98325.28;;;18.10;48.56
5062;BME280;2351;50.812;12.872;2023-05-29T08:51:02;98321.94;;;18.08;48.02
5062;BME280;2351;50.812;12.872;2023-05-29T08:53:34;98326.28;;;18.09;49.32
5062;BME280;2351;50.812;12.872;2023-05-29T08:56:06;98324.97;;;18.04;47.55
5062;BME280;2351;50.812;12.872;2023-05-29T08:58:40;98322.63;;;18.10;48.42
5062;BME280;2351;50.812;12.872;2023-05-29T09:01:12;98323.44;;;18.10;48.18
5062;BME280;2351;50.812;12.872;2023-05-29T09:03:44;98326.94;;;18.19;48.50
5062;BME280;2351;50.812;12.872;2023-05-29T09:06:17;98333.13;;;18.28;46.74
5062;BME280;2351;50.812;12.872;2023-05-29T09:08:51;98324.09;;;18.20;46.46
5062;BME280;2351;50.812;12.872;2023-05-29T09:11:23;98325.94;;;18.20;47.21
5062;BME280;2351;50.812;12.872;2023-05-29T09:13:56;98333.66;;;18.15;47.33
5062;BME280;2351;50.812;12.872;2023-05-29T09:16:30;98330.94;;;18.23;47.72
5062;BME280;2351;50.812;12.872;2023-05-29T09:19:05;98327.72;;;18.36;48.07
5062;BME280;2351;50.812;12.872;2023-05-29T09:21:39;98333.25;;;18.34;46.67
5062;BME280;2351;50.812;12.872;2023-05-29T09:24:14;98329.91;;;18.41;47.39
5062;BME280;2351;50.812;12.872;2023-05-29T09:26:49;98327.84;;;18.43;48.05
5062;BME280;2351;50.812;12.872;2023-05-29T09:29:21;98326.81;;;18.52;47.52
5062;BME280;2351;50.812;12.872;2023-05-29T09:31:52;98332.97;;;18.61;46.80
5062;BME280;2351;50.812;12.872;2023-05-29T09:34:24;98334.13;;;18.66;46.88
5062;BME280;2351;50.812;12.872;2023-05-29T09:37:02;98334.78;;;18.69;47.26
5062;BME280;2351;50.812;12.872;2023-05-29T09:39:44;98334.75;;;18.77;46.29
5062;BME280;2351;50.812;12.872;2023-05-29T09:42:17;98330.94;;;18.71;45.05
5062;BME280;2351;50.812;12.872;2023-05-29T09:44:50;98331.50;;;18.58;44.46
5062;BME280;2351;50.812;12.872;2023-05-29T09:47:23;98331.94;;;18.70;44.90
5062;BME280;2351;50.812;12.872;2023-05-29T09:49:55;98337.75;;;18.82;44.54
5062;BME280;2351;50.812;12.872;2023-05-29T09:52:30;98344.72;;;18.91;44.25
5062;BME280;2351;50.812;12.872;2023-05-29T09:55:02;98333.28;;;19.06;44.49
5062;BME280;2351;50.812;12.872;2023-05-29T09:57:35;98338.66;;;19.06;44.35
5062;BME280;2351;50.812;12.872;2023-05-29T10:00:08;98345.69;;;19.07;43.86
5062;BME280;2351;50.812;12.872;2023-05-29T10:02:43;98333.41;;;19.13;43.45
5062;BME280;2351;50.812;12.872;2023-05-29T10:05:15;98337.53;;;19.23;42.70
5062;BME280;2351;50.812;12.872;2023-05-29T10:07:49;98328.59;;;19.08;42.37
5062;BME280;2351;50.812;12.872;2023-05-29T10:10:25;98336.63;;;19.08;41.57
5062;BME280;2351;50.812;12.872;2023-05-29T10:13:00;98327.16;;;19.20;42.05
5062;BME280;2351;50.812;12.872;2023-05-29T10:15:34;98338.97;;;19.34;42.16
5062;BME280;2351;50.812;12.872;2023-05-29T10:18:11;98330.44;;;19.31;41.25
5062;BME280;2351;50.812;12.872;2023-05-29T10:20:45;98322.91;;;19.49;42.04
5062;BME280;2351;50.812;12.872;2023-05-29T10:23:24;98327.47;;;19.64;41.06
5062;BME280;2351;50.812;12.872;2023-05-29T10:25:58;98332.78;;;19.72;40.57
5062;BME280;2351;50.812;12.872;2023-05-29T10:28:36;98325.75;;;19.71;40.44
5062;BME280;2351;50.812;12.872;2023-05-29T10:31:16;98323.59;;;19.90;41.22
5062;BME280;2351;50.812;12.872;2023-05-29T10:34:01;98324.03;;;19.93;40.67
5062;BME280;2351;50.812;12.872;2023-05-29T10:36:38;98320.25;;;19.88;40.58
5062;BME280;2351;50.812;12.872;2023-05-29T10:39:13;98323.59;;;19.90;41.10
5062;BME280;2351;50.812;12.872;2023-05-29T10:41:45;98320.78;;;19.98;40.86
5062;BME280;2351;50.812;12.872;2023-05-29T10:44:37;98323.59;;;20.05;41.24
5062;BME280;2351;50.812;12.872;2023-05-29T10:47:10;98319.78;;;19.99;40.07
5062;BME280;2351;50.812;12.872;2023-05-29T10:49:49;98314.16;;;19.70;38.88
5062;BME280;2351;50.812;12.872;2023-05-29T10:52:22;98316.88;;;19.85;39.72
5062;BME280;2351;50.812;12.872;2023-05-29T10:54:55;98320.03;;;19.89;38.60
5062;BME280;2351;50.812;12.872;2023-05-29T10:57:28;98315.06;;;20.01;38.95
5062;BME280;2351;50.812;12.872;2023-05-29T11:00:03;98310.28;;;20.26;39.54
5062;BME280;2351;50.812;12.872;2023-05-29T11:02:43;98311.47;;;20.24;37.10
5062;BME280;2351;50.812;12.872;2023-05-29T11:05:22;98305.63;;;20.05;38.28
5062;BME280;2351;50.812;12.872;2023-05-29T11:07:56;98302.75;;;20.22;38.70
5062;BME280;2351;50.812;12.872;2023-05-29T11:13:38;98304.50;;;20.44;38.50
5062;BME280;2351;50.812;12.872;2023-05-29T11:16:12;98308.97;;;20.37;37.69
5062;BME280;2351;50.812;12.872;2023-05-29T11:18:46;98303.41;;;20.39;37.55
5062;BME280;2351;50.812;12.872;2023-05-29T11:21:33;98298.09;;;20.45;37.72
5062;BME280;2351;50.812;12.872;2023-05-29T11:24:06;98303.59;;;20.52;37.84
5062;BME280;2351;50.812;12.872;2023-05-29T11:26:38;98300.50;;;20.55;37.81
5062;BME280;2351;50.812;12.872;2023-05-29T11:29:11;98300.03;;;20.52;36.81
5062;BME280;2351;50.812;12.872;2023-05-29T11:31:43;98305.84;;;20.19;36.95
5062;BME280;2351;50.812;12.872;2023-05-29T11:34:16;98294.50;;;20.23;37.61
5062;BME280;2351;50.812;12.872;2023-05-29T11:36:48;98293.66;;;20.53;38.75
5062;BME280;2351;50.812;12.872;2023-05-29T11:39:20;98298.44;;;20.72;37.40
5062;BME280;2351;50.812;12.872;2023-05-29T11:41:52;98298.25;;;20.74;36.08
5062;BME280;2351;50.812;12.872;2023-05-29T11:44:28;98293.41;;;20.84;36.94
5062;BME280;2351;50.812;12.872;2023-05-29T11:47:00;98297.03;;;20.91;37.83
5062;BME280;2351;50.812;12.872;2023-05-29T11:49:35;98284.28;;;21.00;37.56
5062;BME280;2351;50.812;12.872;2023-05-29T11:52:08;98289.94;;;21.05;37.04
5062;BME280;2351;50.812;12.872;2023-05-29T11:54:40;98297.81;;;21.29;38.22
5062;BME280;2351;50.812;12.872;2023-05-29T11:57:18;98291.41;;;21.30;36.57
5062;BME280;2351;50.812;12.872;2023-05-29T11:59:51;98296.09;;;21.21;36.89
5062;BME280;2351;50.812;12.872;2023-05-29T12:02:30;98282.09;;;21.32;36.10
5062;BME280;2351;50.812;12.872;2023-05-29T12:05:02;98290.50;;;21.22;36.47
5062;BME280;2351;50.812;12.872;2023-05-29T12:07:34;98293.00;;;21.02;36.67
5062;BME280;2351;50.812;12.872;2023-05-29T12:10:10;98290.88;;;20.98;36.80
5062;BME280;2351;50.812;12.872;2023-05-29T12:12:42;98289.94;;;21.05;36.12
5062;BME280;2351;50.812;12.872;2023-05-29T12:15:16;98285.38;;;21.28;35.86
5062;BME280;2351;50.812;12.872;2023-05-29T12:17:49;98280.72;;;21.43;35.15
5062;BME280;2351;50.812;12.872;2023-05-29T12:20:22;98286.66;;;21.32;35.94
5062;BME280;2351;50.812;12.872;2023-05-29T12:22:59;98275.44;;;21.50;36.58
5062;BME280;2351;50.812;12.872;2023-05-29T12:25:34;98282.59;;;21.64;35.85
5062;BME280;2351;50.812;12.872;2023-05-29T12:28:07;98282.47;;;21.73;35.66
5062;BME280;2351;50.812;12.872;2023-05-29T12:30:40;98287.72;;;21.59;35.72
5062;BME280;2351;50.812;12.872;2023-05-29T12:33:24;98283.03;;;21.46;36.09
5062;BME280;2351;50.812;12.872;2023-05-29T12:36:03;98288.88;;;21.72;35.90
5062;BME280;2351;50.812;12.872;2023-05-29T12:38:46;98288.97;;;21.85;36.23
5062;BME280;2351;50.812;12.872;2023-05-29T12:41:25;98284.28;;;22.01;35.86
5062;BME280;2351;50.812;12.872;2023-05-29T12:43:57;98287.78;;;22.30;34.91
5062;BME280;2351;50.812;12.872;2023-05-29T12:46:37;98279.28;;;21.97;34.13
5062;BME280;2351;50.812;12.872;2023-05-29T12:49:13;98280.63;;;21.80;34.31
5062;BME280;2351;50.812;12.872;2023-05-29T12:51:45;98287.06;;;21.57;34.97
5062;BME280;2351;50.812;12.872;2023-05-29T12:54:17;98279.16;;;21.27;36.16
5062;BME280;2351;50.812;12.872;2023-05-29T12:56:48;98274.66;;;21.34;37.13
5062;BME280;2351;50.812;12.872;2023-05-29T12:59:21;98267.78;;;21.54;36.58
5062;BME280;2351;50.812;12.872;2023-05-29T13:01:55;98265.03;;;21.47;35.07
5062;BME280;2351;50.812;12.872;2023-05-29T13:04:26;98262.63;;;21.09;35.11
5062;BME280;2351;50.812;12.872;2023-05-29T13:06:58;98269.22;;;21.28;36.11
5062;BME280;2351;50.812;12.872;2023-05-29T13:09:30;98265.38;;;21.37;36.24
5062;BME280;2351;50.812;12.872;2023-05-29T13:12:01;98269.88;;;21.58;35.95
5062;BME280;2351;50.812;12.872;2023-05-29T13:14:33;98264.47;;;21.30;36.73
5062;BME280;2351;50.812;12.872;2023-05-29T13:17:07;98258.28;;;21.29;37.45
5062;BME280;2351;50.812;12.872;2023-05-29T13:19:39;98262.38;;;21.25;36.54
5062;BME280;2351;50.812;12.872;2023-05-29T13:22:10;98268.03;;;21.59;36.72
5062;BME280;2351;50.812;12.872;2023-05-29T13:24:42;98264.81;;;21.70;35.97
5062;BME280;2351;50.812;12.872;2023-05-29T13:27:14;98261.06;;;22.00;34.43
5062;BME280;2351;50.812;12.872;2023-05-29T13:29:46;98260.44;;;22.33;35.24
5062;BME280;2351;50.812;12.872;2023-05-29T13:32:20;98250.44;;;22.26;34.48
5062;BME280;2351;50.812;12.872;2023-05-29T13:34:52;98248.97;;;22.17;33.62
5062;BME280;2351;50.812;12.872;2023-05-29T13:37:24;98254.75;;;21.86;33.36
5062;BME280;2351;50.812;12.872;2023-05-29T13:39:57;98259.47;;;22.05;34.68
5062;BME280;2351;50.812;12.872;2023-05-29T13:42:29;98251.03;;;22.15;34.32
5062;BME280;2351;50.812;12.872;2023-05-29T13:45:01;98248.00;;;21.96;32.71
5062;BME280;2351;50.812;12.872;2023-05-29T13:47:35;98251.25;;;21.85;32.83
5062;BME280;2351;50.812;12.872;2023-05-29T13:50:08;98249.88;;;21.61;33.77
5062;BME280;2351;50.812;12.872;2023-05-29T13:52:40;98249.50;;;21.71;35.21